createdAt,value
2017-02-16T00:00:41.266Z,968.39
2017-02-16T00:01:40.941Z,968.32
2017-02-16T00:02:40.921Z,968.33
2017-02-16T00:03:40.916Z,968.32
2017-02-16T00:04:40.925Z,968.32
2017-02-16T00:05:40.969Z,968.29
2017-02-16T00:06:40.867Z,968.32
2017-02-16T00:07:40.851Z,968.3
2017-02-16T00:08:40.856Z,968.29
2017-02-16T00:09:40.806Z,968.29
2017-02-16T00:10:40.806Z,968.32
2017-02-16T00:11:40.777Z,968.33
2017-02-16T00:12:40.764Z,968.32
2017-02-16T00:13:40.750Z,968.34
2017-02-16T00:14:40.737Z,968.36
2017-02-16T00:15:40.726Z,968.39
2017-02-16T00:16:40.695Z,968.32
2017-02-16T00:17:40.699Z,968.41
2017-02-16T00:18:40.667Z,968.38
2017-02-16T00:19:40.648Z,968.4
2017-02-16T00:20:40.636Z,968.39
2017-02-16T00:21:40.636Z,968.4
2017-02-16T00:22:40.609Z,968.36
2017-02-16T00:23:40.610Z,968.39
2017-02-16T00:24:40.569Z,968.32
2017-02-16T00:25:40.554Z,968.3
2017-02-16T00:26:40.588Z,968.31
2017-02-16T00:27:40.568Z,968.35
2017-02-16T00:28:40.506Z,968.36
2017-02-16T00:29:40.507Z,968.37
2017-02-16T00:30:40.496Z,968.39
2017-02-16T00:31:40.462Z,968.39
2017-02-16T00:32:40.501Z,968.39
2017-02-16T00:33:40.428Z,968.41
2017-02-16T00:34:40.431Z,968.37
2017-02-16T00:35:40.399Z,968.36
2017-02-16T00:36:40.386Z,968.37
2017-02-16T00:37:40.374Z,968.38
2017-02-16T00:38:40.352Z,968.33
2017-02-16T00:39:40.336Z,968.34
2017-02-16T00:40:40.429Z,968.4
2017-02-16T00:41:40.481Z,968.34
2017-02-16T00:42:40.484Z,968.41
2017-02-16T00:43:40.436Z,968.41
2017-02-16T00:44:40.433Z,968.36
2017-02-16T00:45:40.458Z,968.34
2017-02-16T00:46:40.299Z,968.36
2017-02-16T00:47:40.277Z,968.38
2017-02-16T00:48:40.276Z,968.37
2017-02-16T00:49:40.268Z,968.3
2017-02-16T00:50:40.162Z,968.34
2017-02-16T00:51:40.150Z,968.35
2017-02-16T00:52:40.136Z,968.31
2017-02-16T00:53:40.117Z,968.31
2017-02-16T00:54:40.100Z,968.4
2017-02-16T00:55:40.088Z,968.41
2017-02-16T00:56:40.072Z,968.39
2017-02-16T00:57:40.057Z,968.38
2017-02-16T00:58:40.041Z,968.4
2017-02-16T00:59:40.026Z,968.42
2017-02-16T01:00:40.009Z,968.41
2017-02-16T01:01:39.991Z,968.36
2017-02-16T01:02:39.976Z,968.29
2017-02-16T01:03:39.962Z,968.35
2017-02-16T01:04:39.945Z,968.37
2017-02-16T01:05:39.929Z,968.34
2017-02-16T01:06:39.914Z,968.25
2017-02-16T01:07:39.899Z,968.28
2017-02-16T01:08:39.882Z,968.34
2017-02-16T01:09:39.870Z,968.36
2017-02-16T01:10:39.854Z,968.36
2017-02-16T01:11:39.835Z,968.44
2017-02-16T01:12:39.819Z,968.43
2017-02-16T01:13:39.804Z,968.4
2017-02-16T01:14:39.789Z,968.42
2017-02-16T01:15:39.777Z,968.37
2017-02-16T01:16:39.760Z,968.37
2017-02-16T01:17:39.742Z,968.27
2017-02-16T01:18:39.728Z,968.38
2017-02-16T01:19:39.713Z,968.3
2017-02-16T01:20:39.698Z,968.34
2017-02-16T01:21:39.681Z,968.34
2017-02-16T01:22:39.667Z,968.36
2017-02-16T01:23:39.648Z,968.4
2017-02-16T01:24:39.635Z,968.4
2017-02-16T01:25:39.621Z,968.39
2017-02-16T01:26:39.604Z,968.4
2017-02-16T01:27:39.590Z,968.45
2017-02-16T01:28:39.571Z,968.37
2017-02-16T01:29:39.559Z,968.41
2017-02-16T01:30:39.542Z,968.41
2017-02-16T01:31:39.527Z,968.38
2017-02-16T01:32:39.508Z,968.35
2017-02-16T01:33:39.495Z,968.36
2017-02-16T01:34:39.479Z,968.31
2017-02-16T01:35:39.461Z,968.31
2017-02-16T01:36:39.448Z,968.34
2017-02-16T01:37:39.432Z,968.35
2017-02-16T01:38:39.414Z,968.35
2017-02-16T01:39:39.399Z,968.34
2017-02-16T01:40:39.386Z,968.37
2017-02-16T01:41:39.370Z,968.35
2017-02-16T01:42:39.353Z,968.39
2017-02-16T01:43:39.339Z,968.31
2017-02-16T01:44:39.324Z,968.33
2017-02-16T01:45:39.307Z,968.32
2017-02-16T01:46:39.291Z,968.31
2017-02-16T01:47:39.276Z,968.29
2017-02-16T01:48:39.261Z,968.29
2017-02-16T01:49:39.248Z,968.2
2017-02-16T01:50:39.229Z,968.26
2017-02-16T01:51:39.238Z,968.25
2017-02-16T01:52:39.195Z,968.25
2017-02-16T01:53:39.178Z,968.27
2017-02-16T01:54:39.164Z,968.29
2017-02-16T01:55:39.148Z,968.3
2017-02-16T01:56:39.132Z,968.34
2017-02-16T01:57:39.119Z,968.31
2017-02-16T01:58:39.101Z,968.34
2017-02-16T01:59:39.087Z,968.37
2017-02-16T02:00:39.069Z,968.38
2017-02-16T02:01:39.079Z,968.29
2017-02-16T02:02:39.037Z,968.26
2017-02-16T02:03:39.024Z,968.25
2017-02-16T02:04:39.005Z,968.23
2017-02-16T02:05:38.994Z,968.27
2017-02-16T02:06:38.975Z,968.24
2017-02-16T02:07:38.957Z,968.25
2017-02-16T02:08:38.943Z,968.23
2017-02-16T02:09:38.928Z,968.26
2017-02-16T02:10:38.914Z,968.27
2017-02-16T02:11:38.896Z,968.26
2017-02-16T02:12:38.880Z,968.26
2017-02-16T02:13:38.864Z,968.28
2017-02-16T02:14:38.848Z,968.3
2017-02-16T02:15:38.835Z,968.29
2017-02-16T02:16:38.818Z,968.28
2017-02-16T02:17:38.801Z,968.31
2017-02-16T02:18:38.787Z,968.26
2017-02-16T02:19:38.768Z,968.28
2017-02-16T02:20:38.753Z,968.32
2017-02-16T02:21:38.739Z,968.3
2017-02-16T02:22:38.723Z,968.29
2017-02-16T02:23:38.710Z,968.31
2017-02-16T02:24:38.692Z,968.25
2017-02-16T02:25:38.674Z,968.27
2017-02-16T02:26:38.656Z,968.28
2017-02-16T02:27:38.643Z,968.27
2017-02-16T02:28:38.626Z,968.25
2017-02-16T02:29:38.608Z,968.3
2017-02-16T02:30:38.599Z,968.3
2017-02-16T02:31:38.584Z,968.3
2017-02-16T02:32:38.564Z,968.29
2017-02-16T02:33:38.545Z,968.28
2017-02-16T02:34:38.528Z,968.28
2017-02-16T02:35:38.516Z,968.23
2017-02-16T02:36:38.496Z,968.23
2017-02-16T02:37:38.484Z,968.21
2017-02-16T02:38:38.489Z,968.23
2017-02-16T02:39:38.450Z,968.23
2017-02-16T02:40:38.433Z,968.25
2017-02-16T02:41:38.420Z,968.27
2017-02-16T02:42:38.401Z,968.25
2017-02-16T02:43:38.385Z,968.26
2017-02-16T02:44:38.368Z,968.26
2017-02-16T02:45:38.356Z,968.29
2017-02-16T02:46:38.336Z,968.25
2017-02-16T02:47:38.320Z,968.22
2017-02-16T02:48:38.304Z,968.23
2017-02-16T02:49:38.291Z,968.22
2017-02-16T02:50:38.272Z,968.2
2017-02-16T02:51:38.256Z,968.21
2017-02-16T02:52:38.249Z,968.19
2017-02-16T02:53:38.230Z,968.19
2017-02-16T02:54:38.213Z,968.18
2017-02-16T02:55:38.200Z,968.21
2017-02-16T02:56:38.182Z,968.18
2017-02-16T02:57:38.165Z,968.16
2017-02-16T02:58:38.151Z,968.14
2017-02-16T02:59:38.135Z,968.13
2017-02-16T03:00:38.116Z,968.09
2017-02-16T03:01:38.103Z,968.14
2017-02-16T03:02:38.086Z,968.18
2017-02-16T03:03:38.071Z,968.15
2017-02-16T03:04:38.054Z,968.11
2017-02-16T03:05:38.030Z,968.1
2017-02-16T03:06:38.019Z,968.08
2017-02-16T03:07:38.006Z,968.11
2017-02-16T03:08:37.987Z,968.09
2017-02-16T03:09:37.972Z,968.17
2017-02-16T03:10:37.956Z,968.09
2017-02-16T03:11:37.934Z,968.08
2017-02-16T03:12:37.923Z,968.13
2017-02-16T03:13:37.907Z,968.13
2017-02-16T03:14:37.887Z,968.17
2017-02-16T03:15:37.872Z,968.14
2017-02-16T03:16:37.857Z,968.14
2017-02-16T03:17:37.837Z,968.12
2017-02-16T03:18:37.822Z,968.13
2017-02-16T03:19:37.805Z,968.11
2017-02-16T03:20:37.788Z,968.09
2017-02-16T03:21:37.801Z,968.15
2017-02-16T03:22:37.761Z,968.08
2017-02-16T03:23:37.735Z,968.11
2017-02-16T03:24:37.722Z,968.14
2017-02-16T03:25:37.708Z,968.15
2017-02-16T03:26:37.683Z,968.15
2017-02-16T03:27:37.671Z,968.2
2017-02-16T03:28:37.655Z,968.18
2017-02-16T03:29:37.643Z,968.14
2017-02-16T03:30:37.621Z,968.1
2017-02-16T03:31:37.604Z,968.18
2017-02-16T03:32:37.588Z,968.13
2017-02-16T03:33:37.571Z,968.14
2017-02-16T03:34:37.553Z,968.15
2017-02-16T03:35:37.537Z,968.13
2017-02-16T03:36:37.520Z,968.17
2017-02-16T03:37:37.507Z,968.18
2017-02-16T03:38:37.486Z,968.1
2017-02-16T03:39:37.469Z,968.13
2017-02-16T03:40:37.456Z,968.15
2017-02-16T03:41:37.438Z,968.18
2017-02-16T03:42:37.411Z,968.14
2017-02-16T03:43:37.404Z,968.11
2017-02-16T03:44:37.388Z,968.18
2017-02-16T03:45:37.367Z,968.14
2017-02-16T03:46:37.352Z,968.13
2017-02-16T03:47:37.330Z,968.18
2017-02-16T03:48:37.318Z,968.12
2017-02-16T03:49:37.303Z,968.15
2017-02-16T03:50:37.280Z,968.14
2017-02-16T03:51:37.266Z,968.13
2017-02-16T03:52:37.246Z,968.11
2017-02-16T03:53:37.235Z,968.13
2017-02-16T03:54:37.214Z,968.11
2017-02-16T03:55:37.201Z,968.13
2017-02-16T03:56:37.180Z,968.09
2017-02-16T03:57:37.164Z,968.15
2017-02-16T03:58:37.147Z,968.14
2017-02-16T03:59:37.131Z,968.07
2017-02-16T04:00:37.112Z,968.17
2017-02-16T04:01:37.104Z,968.17
2017-02-16T04:02:37.078Z,968.12
2017-02-16T04:03:37.065Z,968.16
2017-02-16T04:04:37.047Z,968.17
2017-02-16T04:05:37.027Z,968.09
2017-02-16T04:06:37.003Z,968.09
2017-02-16T04:07:36.995Z,968.08
2017-02-16T04:08:36.980Z,968.13
2017-02-16T04:09:36.958Z,968.08
2017-02-16T04:10:36.946Z,968.06
2017-02-16T04:11:36.925Z,968.1
2017-02-16T04:12:36.911Z,968.04
2017-02-16T04:13:36.885Z,968.08
2017-02-16T04:14:36.874Z,968.17
2017-02-16T04:15:36.860Z,968.15
2017-02-16T04:16:36.839Z,968.13
2017-02-16T04:17:36.817Z,968.09
2017-02-16T04:18:36.802Z,968.08
2017-02-16T04:19:36.789Z,968.04
2017-02-16T04:20:36.859Z,968.08
2017-02-16T04:21:36.759Z,968.13
2017-02-16T04:22:36.740Z,968.13
2017-02-16T04:23:36.720Z,968.08
2017-02-16T04:24:36.703Z,968.04
2017-02-16T04:25:36.681Z,968.08
2017-02-16T04:26:36.668Z,968.09
2017-02-16T04:27:36.652Z,968.1
2017-02-16T04:28:36.638Z,968.08
2017-02-16T04:29:36.621Z,968.04
2017-02-16T04:30:36.597Z,968.01
2017-02-16T04:31:36.587Z,968.04
2017-02-16T04:32:36.570Z,968.09
2017-02-16T04:33:36.555Z,968.06
2017-02-16T04:34:36.537Z,968.1
2017-02-16T04:35:36.515Z,968.04
2017-02-16T04:36:36.501Z,968.09
2017-02-16T04:37:36.485Z,968.08
2017-02-16T04:38:36.471Z,968.05
2017-02-16T04:39:36.451Z,968.05
2017-02-16T04:40:36.431Z,968.05
2017-02-16T04:41:36.417Z,968.04
2017-02-16T04:42:36.399Z,967.98
2017-02-16T04:43:36.382Z,968.04
2017-02-16T04:44:36.366Z,968.01
2017-02-16T04:45:36.349Z,967.97
2017-02-16T04:46:36.334Z,967.99
2017-02-16T04:47:36.312Z,968.02
2017-02-16T04:48:36.296Z,968
2017-02-16T04:49:36.280Z,968
2017-02-16T04:50:36.260Z,967.99
2017-02-16T04:51:36.242Z,967.97
2017-02-16T04:52:36.226Z,968
2017-02-16T04:53:36.209Z,968.01
2017-02-16T04:54:36.195Z,967.95
2017-02-16T04:55:36.177Z,967.98
2017-02-16T04:56:36.157Z,967.96
2017-02-16T04:57:36.144Z,968.01
2017-02-16T04:58:36.122Z,968
2017-02-16T04:59:36.108Z,967.99
2017-02-16T05:00:36.091Z,967.95
2017-02-16T05:01:36.072Z,967.94
2017-02-16T05:02:36.047Z,967.92
2017-02-16T05:03:36.039Z,967.96
2017-02-16T05:04:36.022Z,967.96
2017-02-16T05:05:35.997Z,968.02
2017-02-16T05:06:35.988Z,967.96
2017-02-16T05:07:35.972Z,967.96
2017-02-16T05:08:35.954Z,967.94
2017-02-16T05:09:35.936Z,967.96
2017-02-16T05:10:35.921Z,967.99
2017-02-16T05:11:35.899Z,967.97
2017-02-16T05:12:35.885Z,967.97
2017-02-16T05:13:35.867Z,967.9
2017-02-16T05:14:35.844Z,967.91
2017-02-16T05:15:35.823Z,967.94
2017-02-16T05:16:35.817Z,967.91
2017-02-16T05:17:35.799Z,967.92
2017-02-16T05:18:35.782Z,967.89
2017-02-16T05:19:35.763Z,967.88
2017-02-16T05:20:35.744Z,967.93
2017-02-16T05:21:35.730Z,967.91
2017-02-16T05:22:35.709Z,967.93
2017-02-16T05:23:35.690Z,967.89
2017-02-16T05:24:35.679Z,967.91
2017-02-16T05:25:35.658Z,967.91
2017-02-16T05:26:35.641Z,967.87
2017-02-16T05:27:35.628Z,967.92
2017-02-16T05:28:35.607Z,967.92
2017-02-16T05:29:35.584Z,967.95
2017-02-16T05:30:35.573Z,967.97
2017-02-16T05:31:35.558Z,967.91
2017-02-16T05:32:35.532Z,967.95
2017-02-16T05:33:35.523Z,967.94
2017-02-16T05:34:35.501Z,967.93
2017-02-16T05:35:35.487Z,967.91
2017-02-16T05:36:35.469Z,967.9
2017-02-16T05:37:35.457Z,967.94
2017-02-16T05:38:35.438Z,967.93
2017-02-16T05:39:35.421Z,967.96
2017-02-16T05:40:35.404Z,967.92
2017-02-16T05:41:35.384Z,967.9
2017-02-16T05:42:35.366Z,967.97
2017-02-16T05:43:35.349Z,967.89
2017-02-16T05:44:35.332Z,967.92
2017-02-16T05:45:35.317Z,967.91
2017-02-16T05:46:35.300Z,967.92
2017-02-16T05:47:35.280Z,967.94
2017-02-16T05:48:35.264Z,967.92
2017-02-16T05:49:35.249Z,967.94
2017-02-16T05:50:35.229Z,967.94
2017-02-16T05:51:35.214Z,967.9
2017-02-16T05:52:35.187Z,967.97
2017-02-16T05:53:35.177Z,967.9
2017-02-16T05:54:35.160Z,967.88
2017-02-16T05:55:35.143Z,967.91
2017-02-16T05:56:35.127Z,967.87
2017-02-16T05:57:35.108Z,967.89
2017-02-16T05:58:35.091Z,967.86
2017-02-16T05:59:35.079Z,967.89
2017-02-16T06:00:35.058Z,967.87
2017-02-16T06:01:35.039Z,967.87
2017-02-16T06:02:35.025Z,967.87
2017-02-16T06:03:35.009Z,967.84
2017-02-16T06:04:34.985Z,967.85
2017-02-16T06:05:34.973Z,967.91
2017-02-16T06:06:34.958Z,967.88
2017-02-16T06:07:34.938Z,967.89
2017-02-16T06:08:34.923Z,967.86
2017-02-16T06:09:34.896Z,967.86
2017-02-16T06:10:34.890Z,967.88
2017-02-16T06:11:34.870Z,967.88
2017-02-16T06:12:34.846Z,967.89
2017-02-16T06:13:34.839Z,967.88
2017-02-16T06:14:34.819Z,967.91
2017-02-16T06:15:34.797Z,967.97
2017-02-16T06:16:34.785Z,967.91
2017-02-16T06:17:34.770Z,967.94
2017-02-16T06:18:34.755Z,967.93
2017-02-16T06:19:34.728Z,967.93
2017-02-16T06:20:34.720Z,967.97
2017-02-16T06:21:34.700Z,967.93
2017-02-16T06:22:34.682Z,967.97
2017-02-16T06:23:34.662Z,967.98
2017-02-16T06:24:34.643Z,967.99
2017-02-16T06:25:34.631Z,967.99
2017-02-16T06:26:34.617Z,967.94
2017-02-16T06:27:34.599Z,967.94
2017-02-16T06:28:34.583Z,967.99
2017-02-16T06:29:34.560Z,967.97
2017-02-16T06:30:34.545Z,967.94
2017-02-16T06:31:34.532Z,967.9
2017-02-16T06:32:34.515Z,967.97
2017-02-16T06:33:34.496Z,967.86
2017-02-16T06:34:34.479Z,967.94
2017-02-16T06:35:34.464Z,967.89
2017-02-16T06:36:34.444Z,967.91
2017-02-16T06:37:34.423Z,967.94
2017-02-16T06:38:34.413Z,967.94
2017-02-16T06:39:34.394Z,967.93
2017-02-16T06:40:34.375Z,967.98
2017-02-16T06:41:34.360Z,967.92
2017-02-16T06:42:34.341Z,967.86
2017-02-16T06:43:34.325Z,967.9
2017-02-16T06:44:34.311Z,967.94
2017-02-16T06:45:34.293Z,967.87
2017-02-16T06:46:34.275Z,967.95
2017-02-16T06:47:34.261Z,967.98
2017-02-16T06:48:34.240Z,967.97
2017-02-16T06:49:34.217Z,967.98
2017-02-16T06:50:34.203Z,967.99
2017-02-16T06:51:34.193Z,967.97
2017-02-16T06:52:34.169Z,967.94
2017-02-16T06:53:34.157Z,967.98
2017-02-16T06:54:34.142Z,968.01
2017-02-16T06:55:34.123Z,968.05
2017-02-16T06:56:34.107Z,968.01
2017-02-16T06:57:34.087Z,968.01
2017-02-16T06:58:34.072Z,967.99
2017-02-16T06:59:34.048Z,968
2017-02-16T07:00:34.039Z,968.04
2017-02-16T07:01:34.022Z,968.02
2017-02-16T07:02:34.009Z,968
2017-02-16T07:03:33.992Z,967.98
2017-02-16T07:04:33.973Z,968
2017-02-16T07:05:33.952Z,967.99
2017-02-16T07:06:33.932Z,968.03
2017-02-16T07:07:33.917Z,968.04
2017-02-16T07:08:33.910Z,968.01
2017-02-16T07:09:33.891Z,968.02
2017-02-16T07:10:33.872Z,968.04
2017-02-16T07:11:33.858Z,967.97
2017-02-16T07:12:33.844Z,967.98
2017-02-16T07:13:33.824Z,968.01
2017-02-16T07:14:33.807Z,968.03
2017-02-16T07:15:33.794Z,967.98
2017-02-16T07:16:33.774Z,967.98
2017-02-16T07:17:33.754Z,967.95
2017-02-16T07:18:33.741Z,967.97
2017-02-16T07:19:33.729Z,967.97
2017-02-16T07:20:33.712Z,967.95
2017-02-16T07:21:33.693Z,967.97
2017-02-16T07:22:33.674Z,967.9
2017-02-16T07:23:33.662Z,967.91
2017-02-16T07:24:33.644Z,967.89
2017-02-16T07:25:33.626Z,967.93
2017-02-16T07:26:33.606Z,967.93
2017-02-16T07:27:33.593Z,967.87
2017-02-16T07:28:33.570Z,967.9
2017-02-16T07:29:33.561Z,967.86
2017-02-16T07:30:33.544Z,967.88
2017-02-16T07:31:33.528Z,967.88
2017-02-16T07:32:33.511Z,967.89
2017-02-16T07:33:33.495Z,967.88
2017-02-16T07:34:33.479Z,967.89
2017-02-16T07:35:33.456Z,967.93
2017-02-16T07:36:33.441Z,967.91
2017-02-16T07:37:33.434Z,967.88
2017-02-16T07:38:33.408Z,967.89
2017-02-16T07:39:33.400Z,967.88
2017-02-16T07:40:33.382Z,967.85
2017-02-16T07:41:33.367Z,967.92
2017-02-16T07:42:33.350Z,967.9
2017-02-16T07:43:33.337Z,967.89
2017-02-16T07:44:33.319Z,967.95
2017-02-16T07:45:33.296Z,967.9
2017-02-16T07:46:33.287Z,967.89
2017-02-16T07:47:33.272Z,967.87
2017-02-16T07:48:33.247Z,967.88
2017-02-16T07:49:33.240Z,967.86
2017-02-16T07:50:33.215Z,967.86
2017-02-16T07:51:33.199Z,967.87
2017-02-16T07:52:33.190Z,967.88
2017-02-16T07:53:33.175Z,967.88
2017-02-16T07:54:33.157Z,967.9
2017-02-16T07:55:33.140Z,967.86
2017-02-16T07:56:33.129Z,967.86
2017-02-16T07:57:33.112Z,967.88
2017-02-16T07:58:33.094Z,967.87
2017-02-16T07:59:33.082Z,967.86
2017-02-16T08:00:33.064Z,967.89
2017-02-16T08:01:33.041Z,967.85
2017-02-16T08:02:33.027Z,967.88
2017-02-16T08:03:33.017Z,967.86
2017-02-16T08:04:32.995Z,967.9
2017-02-16T08:05:32.979Z,967.89
2017-02-16T08:06:32.969Z,967.88
2017-02-16T08:07:32.958Z,967.9
2017-02-16T08:08:32.932Z,967.92
2017-02-16T08:09:32.924Z,967.93
2017-02-16T08:10:32.906Z,967.96
2017-02-16T08:11:32.888Z,967.95
2017-02-16T08:12:32.875Z,967.97
2017-02-16T08:13:32.857Z,967.96
2017-02-16T08:14:32.847Z,967.97
2017-02-16T08:15:32.831Z,968
2017-02-16T08:16:32.814Z,968.01
2017-02-16T08:17:32.799Z,967.96
2017-02-16T08:18:32.783Z,967.93
2017-02-16T08:19:32.768Z,967.92
2017-02-16T08:20:32.752Z,967.92
2017-02-16T08:21:32.741Z,967.92
2017-02-16T08:22:32.718Z,967.94
2017-02-16T08:23:32.707Z,967.9
2017-02-16T08:24:32.685Z,967.91
2017-02-16T08:25:32.682Z,967.91
2017-02-16T08:26:32.664Z,967.89
2017-02-16T08:27:32.648Z,967.88
2017-02-16T08:28:32.636Z,967.84
2017-02-16T08:29:32.622Z,967.86
2017-02-16T08:30:32.605Z,967.82
2017-02-16T08:31:32.582Z,967.82
2017-02-16T08:32:32.574Z,967.81
2017-02-16T08:33:32.563Z,967.85
2017-02-16T08:34:32.544Z,967.86
2017-02-16T08:35:32.529Z,967.86
2017-02-16T08:36:32.517Z,967.83
2017-02-16T08:37:32.508Z,967.85
2017-02-16T08:38:32.485Z,967.8
2017-02-16T08:39:32.474Z,967.86
2017-02-16T08:40:32.451Z,967.82
2017-02-16T08:41:32.436Z,967.85
2017-02-16T08:42:32.429Z,967.84
2017-02-16T08:43:32.414Z,967.87
2017-02-16T08:44:32.399Z,967.83
2017-02-16T08:45:32.385Z,967.83
2017-02-16T08:46:32.370Z,967.86
2017-02-16T08:47:32.352Z,967.86
2017-02-16T08:48:32.345Z,967.86
2017-02-16T08:49:32.328Z,967.83
2017-02-16T08:50:32.317Z,967.81
2017-02-16T08:51:32.303Z,967.84
2017-02-16T08:52:32.285Z,967.86
2017-02-16T08:53:32.275Z,967.85
2017-02-16T08:54:32.253Z,967.81
2017-02-16T08:55:32.244Z,967.8
2017-02-16T08:56:32.228Z,967.86
2017-02-16T08:57:32.216Z,967.85
2017-02-16T08:58:32.206Z,967.85
2017-02-16T08:59:32.183Z,967.84
2017-02-16T09:00:32.174Z,967.87
2017-02-16T09:01:32.157Z,967.88
2017-02-16T09:02:32.151Z,967.86
2017-02-16T09:03:32.137Z,967.85
2017-02-16T09:04:32.121Z,967.82
2017-02-16T09:05:32.107Z,967.84
2017-02-16T09:06:32.095Z,967.86
2017-02-16T09:07:32.080Z,967.86
2017-02-16T09:08:32.068Z,967.82
2017-02-16T09:09:32.056Z,967.8
2017-02-16T09:10:32.042Z,967.82
2017-02-16T09:11:32.029Z,967.76
2017-02-16T09:12:32.019Z,967.78
2017-02-16T09:13:31.996Z,967.81
2017-02-16T09:14:31.993Z,967.77
2017-02-16T09:15:31.977Z,967.79
2017-02-16T09:16:31.961Z,967.8
2017-02-16T09:17:31.952Z,967.78
2017-02-16T09:18:31.940Z,967.79
2017-02-16T09:19:31.931Z,967.79
2017-02-16T09:20:31.917Z,967.78
2017-02-16T09:21:31.901Z,967.75
2017-02-16T09:22:31.893Z,967.73
2017-02-16T09:23:31.880Z,967.71
2017-02-16T09:24:31.866Z,967.75
2017-02-16T09:25:31.849Z,967.76
2017-02-16T09:26:31.837Z,967.74
2017-02-16T09:27:31.851Z,967.72
2017-02-16T09:28:31.820Z,967.73
2017-02-16T09:29:31.808Z,967.73
2017-02-16T09:30:31.795Z,967.7
2017-02-16T09:31:31.785Z,967.74
2017-02-16T09:32:31.773Z,967.74
2017-02-16T09:33:31.753Z,967.74
2017-02-16T09:34:31.748Z,967.77
2017-02-16T09:35:31.740Z,967.71
2017-02-16T09:36:31.723Z,967.72
2017-02-16T09:37:31.710Z,967.71
2017-02-16T09:38:31.702Z,967.68
2017-02-16T09:39:31.692Z,967.67
2017-02-16T09:40:31.671Z,967.68
2017-02-16T09:41:31.669Z,967.67
2017-02-16T09:42:31.659Z,967.68
2017-02-16T09:43:31.639Z,967.73
2017-02-16T09:44:31.631Z,967.67
2017-02-16T09:45:31.623Z,967.69
2017-02-16T09:46:31.613Z,967.69
2017-02-16T09:47:31.601Z,967.63
2017-02-16T09:48:31.581Z,967.67
2017-02-16T09:49:31.576Z,967.67
2017-02-16T09:50:31.567Z,967.67
2017-02-16T09:51:31.553Z,967.66
2017-02-16T09:52:31.543Z,967.66
2017-02-16T09:53:31.531Z,967.68
2017-02-16T09:54:31.519Z,967.63
2017-02-16T09:55:31.502Z,967.64
2017-02-16T09:56:31.500Z,967.62
2017-02-16T09:57:31.490Z,967.65
2017-02-16T09:58:31.477Z,967.61
2017-02-16T09:59:31.459Z,967.59
2017-02-16T10:00:31.455Z,967.64
2017-02-16T10:01:31.444Z,967.64
2017-02-16T10:02:31.437Z,967.62
2017-02-16T10:03:31.421Z,967.6
2017-02-16T10:04:31.415Z,967.6
2017-02-16T10:05:31.400Z,967.58
2017-02-16T10:06:31.392Z,967.58
2017-02-16T10:07:31.381Z,967.6
2017-02-16T10:08:31.370Z,967.63
2017-02-16T10:09:31.349Z,967.62
2017-02-16T10:10:31.345Z,967.64
2017-02-16T10:11:31.338Z,967.61
2017-02-16T10:12:31.325Z,967.62
2017-02-16T10:13:31.307Z,967.59
2017-02-16T10:14:31.306Z,967.61
2017-02-16T10:15:31.295Z,967.57
2017-02-16T10:16:31.281Z,967.56
2017-02-16T10:17:31.273Z,967.56
2017-02-16T10:18:31.261Z,967.54
2017-02-16T10:19:31.255Z,967.56
2017-02-16T10:20:31.242Z,967.51
2017-02-16T10:21:31.228Z,967.55
2017-02-16T10:22:31.218Z,967.52
2017-02-16T10:23:31.209Z,967.55
2017-02-16T10:24:31.203Z,967.52
2017-02-16T10:25:31.190Z,967.54
2017-02-16T10:26:31.178Z,967.54
2017-02-16T10:27:31.169Z,967.54
2017-02-16T10:28:31.155Z,967.52
2017-02-16T10:29:31.146Z,967.49
2017-02-16T10:30:31.136Z,967.48
2017-02-16T10:31:31.125Z,967.48
2017-02-16T10:32:31.107Z,967.44
2017-02-16T10:33:31.105Z,967.49
2017-02-16T10:34:31.097Z,967.43
2017-02-16T10:35:31.086Z,967.44
2017-02-16T10:36:31.074Z,967.41
2017-02-16T10:37:31.055Z,967.39
2017-02-16T10:38:31.056Z,967.38
2017-02-16T10:39:31.042Z,967.36
2017-02-16T10:40:31.033Z,967.34
2017-02-16T10:41:31.026Z,967.35
2017-02-16T10:42:31.013Z,967.28
2017-02-16T10:43:30.996Z,967.29
2017-02-16T10:44:30.993Z,967.24
2017-02-16T10:45:30.985Z,967.29
2017-02-16T10:46:30.971Z,967.25
2017-02-16T10:47:30.963Z,967.19
2017-02-16T10:48:30.957Z,967.21
2017-02-16T10:49:30.943Z,967.2
2017-02-16T10:50:30.932Z,967.17
2017-02-16T10:51:30.918Z,967.18
2017-02-16T10:52:30.917Z,967.16
2017-02-16T10:53:30.904Z,967.16
2017-02-16T10:54:30.899Z,967.13
2017-02-16T10:55:30.888Z,967.14
2017-02-16T10:56:30.880Z,967.11
2017-02-16T10:57:30.868Z,967.08
2017-02-16T10:58:30.857Z,967.11
2017-02-16T10:59:30.854Z,967.07
2017-02-16T11:00:30.834Z,967.08
2017-02-16T11:01:30.834Z,967.03
2017-02-16T11:02:30.822Z,967.03
2017-02-16T11:03:30.806Z,966.99
2017-02-16T11:04:30.796Z,967.02
2017-02-16T11:05:30.791Z,967
2017-02-16T11:06:30.783Z,966.97
2017-02-16T11:07:30.768Z,966.93
2017-02-16T11:08:30.766Z,966.91
2017-02-16T11:09:30.752Z,966.87
2017-02-16T11:10:30.745Z,966.88
2017-02-16T11:11:30.735Z,966.89
2017-02-16T11:12:30.726Z,966.83
2017-02-16T11:13:30.710Z,966.82
2017-02-16T11:14:30.712Z,966.77
2017-02-16T11:15:30.698Z,966.8
2017-02-16T11:16:30.684Z,966.77
2017-02-16T11:17:30.683Z,966.77
2017-02-16T11:18:30.668Z,966.74
2017-02-16T11:19:30.665Z,966.74
2017-02-16T11:20:30.660Z,966.76
2017-02-16T11:21:30.640Z,966.75
2017-02-16T11:22:30.638Z,966.76
2017-02-16T11:23:30.624Z,966.7
2017-02-16T11:24:30.619Z,966.69
2017-02-16T11:25:30.612Z,966.69
2017-02-16T11:26:30.603Z,966.71
2017-02-16T11:27:30.583Z,966.66
2017-02-16T11:28:30.578Z,966.62
2017-02-16T11:29:31.518Z,966.63
2017-02-16T11:30:30.558Z,966.56
2017-02-16T11:31:30.555Z,966.57
2017-02-16T11:32:30.541Z,966.55
2017-02-16T11:33:30.542Z,966.54
2017-02-16T11:34:30.525Z,966.5
2017-02-16T11:35:30.520Z,966.51
2017-02-16T11:36:30.514Z,966.49
2017-02-16T11:37:30.502Z,966.52
2017-02-16T11:38:30.494Z,966.45
2017-02-16T11:39:30.479Z,966.47
2017-02-16T11:40:30.479Z,966.41
2017-02-16T11:41:30.467Z,966.37
2017-02-16T11:42:30.458Z,966.38
2017-02-16T11:43:30.448Z,966.34
2017-02-16T11:44:30.441Z,966.34
2017-02-16T11:45:30.426Z,966.3
2017-02-16T11:46:30.417Z,966.35
2017-02-16T11:47:30.414Z,966.36
2017-02-16T11:48:30.406Z,966.31
2017-02-16T11:49:30.394Z,966.31
2017-02-16T11:50:30.386Z,966.32
2017-02-16T11:51:30.372Z,966.37
2017-02-16T11:52:30.371Z,966.33
2017-02-16T11:53:30.353Z,966.34
2017-02-16T11:54:30.353Z,966.3
2017-02-16T11:55:30.333Z,966.27
2017-02-16T11:56:30.333Z,966.33
2017-02-16T11:57:30.325Z,966.31
2017-02-16T11:58:30.313Z,966.31
2017-02-16T11:59:30.307Z,966.3
2017-02-16T12:00:30.296Z,966.29
2017-02-16T12:01:30.286Z,966.29
2017-02-16T12:02:30.280Z,966.26
2017-02-16T12:03:30.271Z,966.26
2017-02-16T12:04:30.259Z,966.2
2017-02-16T12:05:30.253Z,966.23
2017-02-16T12:06:30.240Z,966.19
2017-02-16T12:07:30.234Z,966.18
2017-02-16T12:08:30.223Z,966.17
2017-02-16T12:09:30.212Z,966.2
2017-02-16T12:10:30.205Z,966.2
2017-02-16T12:11:30.197Z,966.19
2017-02-16T12:12:30.182Z,966.16
2017-02-16T12:13:30.180Z,966.19
2017-02-16T12:14:30.171Z,966.26
2017-02-16T12:15:30.164Z,966.22
2017-02-16T12:16:30.156Z,966.22
2017-02-16T12:17:30.144Z,966.22
2017-02-16T12:18:30.134Z,966.18
2017-02-16T12:19:30.124Z,966.19
2017-02-16T12:20:30.118Z,966.15
2017-02-16T12:21:30.103Z,966.12
2017-02-16T12:22:30.101Z,966.12
2017-02-16T12:23:30.088Z,966.06
2017-02-16T12:24:30.083Z,966.1
2017-02-16T12:25:30.074Z,966.03
2017-02-16T12:26:30.069Z,966.04
2017-02-16T12:27:30.061Z,966.05
2017-02-16T12:28:30.051Z,966.01
2017-02-16T12:29:30.042Z,966.01
2017-02-16T12:30:30.034Z,966.04
2017-02-16T12:31:30.024Z,965.94